Time;durP1;ratioP1;P1;durP2;ratioP2;P2;SDS_P1;SDS_P2;PMS_P1;PMS_P2;Temp;Humidity;BMP_temperature;BMP_pressure;BME280_temperature;BME280_humidity;BME280_pressure;Samples;Min_cycle;Max_cycle;Signal;HPM_P1;HPM_P2
2023/08/30 00:02:51;;;;;;;3.58;2.45;;;;;;;17.59;79.39;99486.47;10331194;28;20183;-51
2023/08/30 00:07:53;;;;;;;3.25;2.42;;;;;;;17.51;78.40;99486.59;10342426;28;21042;-50
2023/08/30 00:12:55;;;;;;;3.03;2.40;;;;;;;17.48;77.94;99487.78;10338266;28;20400;-51
2023/08/30 00:17:56;;;;;;;5.85;2.58;;;;;;;17.46;77.64;99489.03;10340195;28;20607;-51
2023/08/30 00:22:58;;;;;;;5.40;2.40;;;;;;;17.20;78.42;99479.56;10309458;28;20060;-51
2023/08/30 00:27:59;;;;;;;2.85;2.10;;;;;;;17.23;76.55;99495.31;10329104;28;20319;-51
2023/08/30 00:33:01;;;;;;;2.95;2.65;;;;;;;17.18;76.99;99486.97;10336123;28;20111;-50
2023/08/30 00:38:03;;;;;;;2.53;2.33;;;;;;;17.20;77.42;99495.69;10317243;28;20736;-51
2023/08/30 00:43:04;;;;;;;4.32;2.95;;;;;;;17.17;78.48;99501.44;10331760;28;20157;-52
2023/08/30 00:48:06;;;;;;;3.85;3.03;;;;;;;17.15;78.29;99492.72;10335425;28;20157;-50
2023/08/30 00:53:10;;;;;;;2.97;2.55;;;;;;;17.19;78.80;99488.66;10343057;28;20182;-51
2023/08/30 00:58:12;;;;;;;4.63;2.50;;;;;;;17.19;78.19;99483.28;10337330;28;20518;-51
2023/08/30 01:03:14;;;;;;;2.92;2.40;;;;;;;17.16;77.98;99490.88;10328078;28;20058;-50
2023/08/30 01:08:16;;;;;;;3.17;2.92;;;;;;;17.12;78.32;99474.28;10337142;28;20119;-51
2023/08/30 01:13:19;;;;;;;3.85;2.50;;;;;;;17.11;77.75;99480.66;10315713;28;20054;-51
2023/08/30 01:18:24;;;;;;;;;;;;;;;17.08;78.53;99465.75;10331939;28;20908;-51
2023/08/30 01:23:58;;;;;;;2.83;2.40;;;;;;;17.08;78.82;99467.59;10340086;28;19931;-52
2023/08/30 01:29:01;;;;;;;3.00;2.70;;;;;;;17.05;78.92;99466.09;10334893;28;20068;-51
2023/08/30 01:34:03;;;;;;;5.38;2.58;;;;;;;16.95;78.76;99434.13;10320767;28;20670;-51
2023/08/30 01:39:07;;;;;;;3.40;2.72;;;;;;;17.03;78.96;99441.28;10337011;28;20049;-52
2023/08/30 01:44:11;;;;;;;4.22;2.72;;;;;;;17.05;79.28;99438.41;10338524;28;20045;-51
2023/08/30 01:49:12;;;;;;;4.10;2.63;;;;;;;17.07;79.73;99436.34;10321257;28;20068;-51
2023/08/30 01:54:17;;;;;;;3.83;2.55;;;;;;;17.06;79.50;99440.06;10339497;28;20050;-51
2023/08/30 01:59:19;;;;;;;7.10;3.30;;;;;;;17.05;79.71;99433.84;10331881;28;20056;-50
2023/08/30 02:04:22;;;;;;;3.88;2.50;;;;;;;17.05;79.63;99433.00;10329419;28;20064;-51
2023/08/30 02:09:28;;;;;;;5.07;3.13;;;;;;;17.01;79.84;99434.41;10339206;28;20041;-50
2023/08/30 02:14:32;;;;;;;2.88;2.65;;;;;;;16.99;79.78;99433.75;10320381;28;20053;-51
2023/08/30 02:19:33;;;;;;;5.63;3.05;;;;;;;16.94;79.38;99435.16;10337621;28;20137;-51
2023/08/30 02:24:35;;;;;;;5.72;2.75;;;;;;;16.90;79.64;99444.63;10309567;28;20745;-50
2023/08/30 02:29:37;;;;;;;3.30;2.85;;;;;;;16.90;80.20;99441.94;10334107;28;20459;-50
2023/08/30 02:34:39;;;;;;;4.05;2.83;;;;;;;16.87;79.82;99442.28;10329180;28;20057;-51
2023/08/30 02:39:40;;;;;;;2.97;2.67;;;;;;;16.42;79.60;99368.81;10336389;28;20064;-50
2023/08/30 02:44:42;;;;;;;4.10;2.95;;;;;;;16.83;79.65;99429.34;10335931;28;20609;-51
2023/08/30 02:49:43;;;;;;;3.08;2.63;;;;;;;16.83;79.67;99440.97;10342695;28;20045;-51
2023/08/30 02:54:44;;;;;;;2.92;2.63;;;;;;;16.83;79.85;99427.53;10337019;28;20053;-50
2023/08/30 02:59:46;;;;;;;3.17;2.88;;;;;;;16.79;79.92;99428.91;10344056;28;20053;-55
2023/08/30 03:04:47;;;;;;;4.47;2.83;;;;;;;16.75;80.49;99427.59;10342335;28;20053;-50
2023/08/30 03:09:52;;;;;;;4.65;3.03;;;;;;;16.64;81.35;99430.75;10325693;28;20554;-51
2023/08/30 03:14:54;;;;;;;4.10;2.85;;;;;;;16.68;80.94;99430.19;10338115;28;20064;-50
2023/08/30 03:19:56;;;;;;;6.53;3.13;;;;;;;16.67;80.77;99419.63;10336381;28;20771;-51
2023/08/30 03:24:57;;;;;;;3.28;2.97;;;;;;;16.66;81.15;99429.53;10329911;28;20077;-51
2023/08/30 03:29:59;;;;;;;3.63;2.63;;;;;;;16.67;81.29;99430.38;10350771;28;20056;-52
2023/08/30 03:35:00;;;;;;;3.10;2.80;;;;;;;16.65;80.91;99427.88;10352048;28;20136;-51
2023/08/30 03:40:02;;;;;;;4.32;2.85;;;;;;;16.61;81.38;99413.97;10339066;28;20676;-50
2023/08/30 03:45:05;;;;;;;4.75;2.70;;;;;;;16.67;81.03;99425.00;10343487;28;20055;-51
2023/08/30 03:50:07;;;;;;;4.27;2.60;;;;;;;16.67;81.42;99425.00;10349076;28;20061;-51
2023/08/30 03:55:08;;;;;;;3.20;2.40;;;;;;;16.66;81.39;99423.31;10336018;28;20111;-51
2023/08/30 04:00:11;;;;;;;3.38;2.80;;;;;;;16.46;81.17;99396.16;10347998;28;20105;-50
2023/08/30 04:05:12;;;;;;;3.50;3.03;;;;;;;16.61;81.65;99426.56;10350462;28;20132;-51
2023/08/30 04:10:14;;;;;;;5.35;3.13;;;;;;;16.58;81.61;99427.75;10347930;28;20192;-50
2023/08/30 04:15:16;;;;;;;6.28;3.13;;;;;;;16.54;81.46;99421.09;10351560;28;20154;-49
2023/08/30 04:20:18;;;;;;;3.35;2.90;;;;;;;16.53;81.90;99422.09;10346585;28;20054;-51
2023/08/30 04:25:19;;;;;;;4.15;3.03;;;;;;;16.52;81.69;99417.75;10343857;28;20677;-51
2023/08/30 04:30:22;;;;;;;3.50;3.00;;;;;;;16.57;81.77;99409.13;10336062;28;20129;-51
2023/08/30 04:35:23;;;;;;;6.25;3.10;;;;;;;16.57;81.43;99420.72;10340320;28;20097;-53
2023/08/30 04:40:25;;;;;;;3.38;3.08;;;;;;;16.56;82.12;99427.13;10330171;28;20045;-51
2023/08/30 04:45:28;;;;;;;4.95;3.28;;;;;;;16.52;81.86;99417.75;10336410;28;20060;-51
2023/08/30 04:50:30;;;;;;;4.72;2.80;;;;;;;16.52;82.39;99417.75;10330248;28;20057;-50
2023/08/30 04:55:31;;;;;;;4.40;3.08;;;;;;;16.44;81.69;99399.03;10335259;28;20052;-50
2023/08/30 05:00:33;;;;;;;5.47;2.80;;;;;;;16.52;81.75;99420.44;10344309;28;20144;-50
2023/08/30 05:05:35;;;;;;;3.42;2.90;;;;;;;16.53;82.50;99419.41;10342205;28;20064;-50
2023/08/30 05:10:36;;;;;;;4.93;3.05;;;;;;;16.54;82.15;99413.03;10330838;28;20060;-51
2023/08/30 05:15:38;;;;;;;4.78;3.45;;;;;;;16.53;82.23;99413.19;10335877;28;20057;-50
2023/08/30 05:20:40;;;;;;;3.17;2.88;;;;;;;16.54;82.05;99426.47;10337085;28;20069;-51
2023/08/30 05:25:42;;;;;;;3.42;3.08;;;;;;;16.45;81.90;99414.13;10339510;28;20058;-51
2023/08/30 05:30:44;;;;;;;3.33;2.70;;;;;;;16.49;82.48;99428.84;10313260;28;20053;-51
2023/08/30 05:35:47;;;;;;;7.07;3.35;;;;;;;16.48;82.32;99432.56;10321416;28;20054;-51
2023/08/30 05:40:49;;;;;;;5.88;3.90;;;;;;;16.51;82.86;99437.56;10330256;28;20041;-51
2023/08/30 05:45:51;;;;;;;5.45;3.30;;;;;;;16.57;83.27;99426.09;10339462;28;20159;-51
2023/08/30 05:50:52;;;;;;;5.55;3.53;;;;;;;16.40;82.33;99395.03;10335267;28;20065;-55
2023/08/30 05:55:54;;;;;;;5.53;3.78;;;;;;;16.55;82.44;99430.81;10331200;28;20057;-51
2023/08/30 06:01:00;;;;;;;5.22;4.05;;;;;;;16.50;82.46;99408.19;10340471;28;20053;-52
2023/08/30 06:06:04;;;;;;;4.82;3.80;;;;;;;16.59;82.14;99425.94;10324353;28;20053;-54
2023/08/30 06:11:06;;;;;;;5.93;3.83;;;;;;;16.63;82.45;99418.31;10343944;28;20166;-50
2023/08/30 06:16:07;;;;;;;6.70;4.28;;;;;;;16.44;82.82;99377.53;10337768;28;21723;-50
2023/08/30 06:21:09;;;;;;;5.53;4.13;;;;;;;16.68;83.04;99410.53;10317938;28;20773;-51
2023/08/30 06:26:10;;;;;;;9.23;4.82;;;;;;;16.76;83.63;99413.16;10335073;28;20589;-50
2023/08/30 06:31:12;;;;;;;6.68;4.07;;;;;;;16.77;83.28;99404.06;10329935;28;20064;-51
2023/08/30 06:36:17;;;;;;;4.78;4.10;;;;;;;16.91;83.14;99400.56;10310696;28;20045;-55
2023/08/30 06:41:19;;;;;;;7.07;4.10;;;;;;;16.91;82.72;99399.75;10328840;28;20073;-51
2023/08/30 06:46:20;;;;;;;7.97;4.55;;;;;;;16.85;83.17;99395.91;10318773;28;20118;-50
2023/08/30 06:51:21;;;;;;;9.80;5.13;;;;;;;17.02;83.45;99406.50;10329696;28;20068;-50
2023/08/30 06:56:23;;;;;;;9.13;5.10;;;;;;;17.06;83.33;99400.56;10335532;28;20057;-50
2023/08/30 07:01:24;;;;;;;6.55;4.95;;;;;;;17.17;84.01;99396.56;10342818;28;20564;-51
2023/08/30 07:06:29;;;;;;;6.22;5.32;;;;;;;17.25;83.93;99399.16;10342985;28;20049;-52
2023/08/30 07:11:31;;;;;;;5.45;4.95;;;;;;;17.41;83.54;99383.81;10343177;28;20058;-51
2023/08/30 07:16:35;;;;;;;;;;;;;;;17.41;83.13;99383.81;10344519;28;20064;-51
2023/08/30 07:21:38;;;;;;;7.13;6.43;;;;;;;17.33;83.38;99381.25;10323506;28;20452;-51
2023/08/30 07:26:39;;;;;;;8.25;7.57;;;;;;;17.32;83.65;99380.41;10345603;28;20049;-51
2023/08/30 07:31:41;;;;;;;7.53;6.93;;;;;;;17.36;84.00;99386.25;10326399;28;20064;-52
2023/08/30 07:36:42;;;;;;;8.52;7.78;;;;;;;17.38;84.41;99385.03;10316764;28;20065;-50
2023/08/30 07:41:48;;;;;;;7.72;7.07;;;;;;;17.46;84.00;99382.25;10325024;28;20050;-53
2023/08/30 07:46:49;;;;;;;9.35;8.55;;;;;;;17.57;83.44;99385.47;10328423;28;20077;-54
2023/08/30 07:51:51;;;;;;;8.88;8.18;;;;;;;17.65;83.18;99386.19;10321528;28;20049;-51
2023/08/30 07:56:52;;;;;;;9.00;8.27;;;;;;;17.73;83.34;99381.69;10317713;28;20536;-58
2023/08/30 08:01:54;;;;;;;13.95;9.25;;;;;;;17.84;82.70;99378.50;10309996;28;20064;-52
2023/08/30 08:06:56;;;;;;;11.07;9.98;;;;;;;17.93;81.93;99388.13;10329861;28;20061;-52
2023/08/30 08:11:57;;;;;;;10.80;9.98;;;;;;;17.93;81.40;99398.91;10345759;28;20061;-54
2023/08/30 08:17:00;;;;;;;9.18;8.38;;;;;;;17.91;80.70;99384.81;10326468;28;20894;-52
2023/08/30 08:22:01;;;;;;;9.70;8.90;;;;;;;18.04;79.62;99392.16;10294610;28;20490;-53
2023/08/30 08:27:05;;;;;;;8.20;7.50;;;;;;;18.16;79.09;99400.56;10322983;28;20054;-52
2023/08/30 08:32:06;;;;;;;9.07;8.35;;;;;;;18.29;77.75;99402.53;10325828;28;20056;-52
2023/08/30 08:37:08;;;;;;;8.30;7.50;;;;;;;18.42;78.20;99394.56;10322565;28;20615;-53
2023/08/30 08:42:10;;;;;;;7.80;7.05;;;;;;;18.63;78.27;99399.06;10325668;28;20070;-53
2023/08/30 08:47:12;;;;;;;8.98;8.18;;;;;;;18.72;75.69;99387.09;10341155;28;20129;-52
2023/08/30 08:52:14;;;;;;;6.43;5.82;;;;;;;18.76;76.05;99394.78;10335849;28;20057;-54
2023/08/30 08:57:31;;;;;;;5.60;5.10;;;;;;;18.87;75.39;99388.88;10339270;28;20056;-53
2023/08/30 09:02:33;;;;;;;7.15;6.53;;;;;;;18.87;73.93;99380.78;10335884;28;20054;-54
2023/08/30 09:07:36;;;;;;;8.02;7.28;;;;;;;18.76;73.66;99373.22;10322851;28;20065;-54
2023/08/30 09:12:37;;;;;;;7.38;6.57;;;;;;;18.90;73.81;99380.41;10320375;28;20089;-55
2023/08/30 09:17:39;;;;;;;7.25;6.55;;;;;;;19.02;73.01;99386.03;10317609;28;20062;-52
2023/08/30 09:22:43;;;;;;;6.45;5.95;;;;;;;19.13;72.65;99376.56;10334595;28;20053;-54
2023/08/30 09:27:44;;;;;;;5.95;4.93;;;;;;;19.32;72.34;99381.22;10317621;28;20052;-52
2023/08/30 09:32:46;;;;;;;6.20;5.68;;;;;;;19.45;70.63;99377.72;10334271;28;20101;-52
2023/08/30 09:37:47;;;;;;;15.00;14.10;;;;;;;19.48;70.09;99371.09;10334918;28;20465;-52
2023/08/30 09:42:49;;;;;;;13.95;12.95;;;;;;;19.70;70.51;99367.19;10314890;28;20089;-53
2023/08/30 09:48:11;;;;;;;5.97;5.47;;;;;;;19.83;68.60;99354.78;10322893;28;20107;-53
2023/08/30 09:53:15;;;;;;;6.47;5.80;;;;;;;19.99;69.03;99332.78;10337926;28;20152;-53
2023/08/30 09:58:17;;;;;;;5.53;4.90;;;;;;;20.23;67.20;99338.59;10319272;28;20478;-52
2023/08/30 10:03:21;;;;;;;5.63;4.05;;;;;;;20.35;66.10;99309.06;10316729;28;20058;-54
2023/08/30 10:08:34;;;;;;;6.40;5.72;;;;;;;20.85;65.84;99333.72;10331081;28;20088;-58
2023/08/30 10:13:38;;;;;;;5.38;4.88;;;;;;;21.10;65.85;99323.00;10334176;28;20049;-52
2023/08/30 10:18:42;;;;;;;6.75;6.20;;;;;;;21.24;62.49;99304.00;10330714;28;20057;-53
2023/08/30 10:23:58;;;;;;;4.45;4.05;;;;;;;22.00;60.90;99315.81;10315002;28;20122;-53
2023/08/30 10:29:01;;;;;;;3.83;3.53;;;;;;;22.11;58.50;99312.38;10329412;28;20761;-53
2023/08/30 10:34:13;;;;;;;5.07;4.67;;;;;;;21.78;60.96;99308.06;10331298;28;20057;-55
2023/08/30 10:39:15;;;;;;;4.70;4.30;;;;;;;21.48;59.30;99303.25;10334263;28;20045;-53
2023/08/30 10:44:21;;;;;;;4.65;4.25;;;;;;;21.24;59.91;99301.28;10334720;28;20096;-54
2023/08/30 10:49:23;;;;;;;4.15;3.75;;;;;;;21.71;56.64;99312.72;10333458;28;20056;-53
2023/08/30 10:54:25;;;;;;;6.00;3.75;;;;;;;21.81;55.78;99299.50;10332656;28;20131;-53
2023/08/30 10:59:27;;;;;;;5.10;2.42;;;;;;;22.01;55.91;99284.97;10330978;28;20049;-54
2023/08/30 11:04:28;;;;;;;3.33;3.00;;;;;;;22.03;56.07;99291.81;10330026;28;20469;-53
2023/08/30 11:09:30;;;;;;;3.40;2.97;;;;;;;22.41;53.99;99287.31;10329824;28;20436;-53
2023/08/30 11:14:32;;;;;;;2.83;1.80;;;;;;;22.69;54.28;99269.69;10329724;28;21048;-54
2023/08/30 11:19:33;;;;;;;4.20;2.58;;;;;;;22.65;52.36;99273.91;10330680;28;20108;-51
2023/08/30 11:24:35;;;;;;;3.78;2.90;;;;;;;22.62;50.92;99263.53;10291611;28;20061;-52
2023/08/30 11:29:40;;;;;;;3.05;2.60;;;;;;;22.90;51.88;99258.38;10333054;28;20099;-54
2023/08/30 11:34:41;;;;;;;2.75;2.53;;;;;;;23.25;50.36;99268.56;10336093;28;20139;-53
2023/08/30 11:39:42;;;;;;;3.35;2.00;;;;;;;22.88;50.79;99252.34;10335120;28;20657;-52
2023/08/30 11:44:45;;;;;;;3.95;2.47;;;;;;;22.48;52.42;99241.16;10344218;28;20155;-52
2023/08/30 11:49:49;;;;;;;3.73;2.40;;;;;;;23.05;50.76;99221.88;10345529;28;20573;-53
2023/08/30 11:54:51;;;;;;;3.15;2.33;;;;;;;23.46;49.17;99239.22;10345306;28;20502;-53
2023/08/30 11:59:53;;;;;;;2.33;2.13;;;;;;;23.25;48.32;99235.97;10327095;28;20512;-53
2023/08/30 12:04:55;;;;;;;2.35;1.83;;;;;;;23.51;47.54;99223.09;10345165;28;20060;-54
2023/08/30 12:10:07;;;;;;;3.65;1.90;;;;;;;23.88;46.27;99217.47;10340772;28;20065;-54
2023/08/30 12:15:10;;;;;;;3.53;1.88;;;;;;;23.74;46.90;99205.16;10342885;28;20053;-54
2023/08/30 12:20:16;;;;;;;2.40;1.60;;;;;;;23.56;45.80;99225.91;10343551;28;20290;-54
2023/08/30 12:25:23;;;;;;;4.15;2.15;;;;;;;23.14;47.94;99209.66;10340097;28;20288;-51
2023/08/30 12:30:25;;;;;;;4.45;3.42;;;;;;;23.29;47.85;99204.59;10339990;28;20084;-52
2023/08/30 12:35:26;;;;;;;4.90;2.67;;;;;;;23.14;47.36;99212.38;10342449;28;20057;-52
2023/08/30 12:40:28;;;;;;;3.30;2.60;;;;;;;22.82;46.33;99212.56;10341958;28;20164;-51
2023/08/30 12:45:30;;;;;;;4.25;2.95;;;;;;;22.69;47.68;99193.75;10326296;28;20172;-51
2023/08/30 12:50:32;;;;;;;3.67;3.03;;;;;;;22.73;48.47;99194.97;10344009;28;20053;-52
2023/08/30 12:55:34;;;;;;;5.15;3.05;;;;;;;22.57;47.20;99190.97;10328651;28;20576;-52
2023/08/30 13:00:36;;;;;;;4.05;2.22;;;;;;;22.65;49.25;99187.94;10342617;28;20065;-54
2023/08/30 13:05:37;;;;;;;3.00;2.55;;;;;;;22.82;44.42;99181.88;10335852;28;20822;-53
2023/08/30 13:10:39;;;;;;;4.53;3.00;;;;;;;23.00;43.71;99176.44;10324426;28;20053;-52
2023/08/30 13:15:40;;;;;;;2.42;1.88;;;;;;;22.94;43.30;99186.31;10305264;28;20308;-53
2023/08/30 13:20:42;;;;;;;3.53;1.80;;;;;;;22.98;44.35;99172.28;10340918;28;22391;-54
2023/08/30 13:25:43;;;;;;;3.38;2.83;;;;;;;23.02;41.04;99181.63;10323884;28;20049;-52
2023/08/30 13:30:45;;;;;;;2.78;2.30;;;;;;;23.00;41.12;99159.28;10342428;28;20061;-53
2023/08/30 13:35:51;;;;;;;3.75;2.58;;;;;;;23.20;41.52;99164.47;10343004;28;20764;-54
2023/08/30 13:40:58;;;;;;;3.08;2.20;;;;;;;23.21;42.31;99164.25;10329700;28;20052;-55
2023/08/30 13:46:00;;;;;;;4.32;2.55;;;;;;;23.30;42.79;99175.59;10332176;28;20068;-54
2023/08/30 13:51:01;;;;;;;2.60;2.40;;;;;;;23.11;42.77;99172.94;10338814;28;20072;-56
2023/08/30 13:56:03;;;;;;;2.90;2.50;;;;;;;23.18;43.18;99174.72;10343079;28;20064;-55
2023/08/30 14:01:04;;;;;;;3.70;3.08;;;;;;;22.92;44.06;99166.72;10323738;28;20091;-54
2023/08/30 14:06:06;;;;;;;3.78;2.60;;;;;;;22.79;44.20;99164.22;10340728;28;20049;-54
2023/08/30 14:11:07;;;;;;;3.10;2.72;;;;;;;;;;10341726;28;20092;-54
2023/08/30 14:16:10;;;;;;;3.72;2.42;;;;;;;22.64;44.75;99161.06;10340060;28;20061;-54
2023/08/30 14:21:13;;;;;;;2.50;2.23;;;;;;;22.65;45.23;99155.41;10320101;28;20573;-54
2023/08/30 14:26:14;;;;;;;3.47;2.75;;;;;;;22.65;43.99;99173.56;10321334;28;20137;-54
2023/08/30 14:31:16;;;;;;;3.60;2.60;;;;;;;22.62;44.98;99160.47;10338832;28;20064;-55
2023/08/30 14:36:19;;;;;;;3.92;3.30;;;;;;;22.53;44.82;99168.09;10340471;28;20779;-55
2023/08/30 14:41:21;;;;;;;3.97;2.90;;;;;;;22.56;45.34;99168.47;10324559;28;20643;-55
2023/08/30 14:46:22;;;;;;;4.05;2.88;;;;;;;22.54;44.99;99158.91;10325817;28;20061;-54
2023/08/30 14:51:25;;;;;;;3.73;2.70;;;;;;;22.60;44.44;99169.66;10299333;28;20060;-55
2023/08/30 14:56:26;;;;;;;3.03;2.83;;;;;;;22.47;45.57;99161.69;10321242;28;20072;-55
2023/08/30 15:01:28;;;;;;;6.22;2.88;;;;;;;22.41;45.58;99154.47;10333937;28;20065;-56
2023/08/30 15:06:30;;;;;;;3.92;2.88;;;;;;;22.40;44.71;99167.19;10314542;28;20506;-56
2023/08/30 15:11:32;;;;;;;3.63;2.20;;;;;;;22.21;44.55;99169.06;10284739;28;20053;-55
2023/08/30 15:16:33;;;;;;;3.47;2.35;;;;;;;22.13;45.21;99169.38;10337440;28;20635;-55
2023/08/30 15:21:36;;;;;;;3.65;2.72;;;;;;;22.13;45.64;99171.22;10314754;28;20107;-54
2023/08/30 15:26:38;;;;;;;3.30;2.28;;;;;;;22.13;45.42;99161.25;10292427;28;20429;-54
2023/08/30 15:31:40;;;;;;;2.30;2.00;;;;;;;22.10;45.74;99147.31;10337151;28;20218;-55
2023/08/30 15:36:42;;;;;;;3.05;2.17;;;;;;;22.11;46.57;99154.38;10339013;28;20783;-54
2023/08/30 15:41:48;;;;;;;3.38;2.67;;;;;;;22.06;46.56;99141.50;10321135;28;20107;-54
2023/08/30 15:46:49;;;;;;;6.28;2.90;;;;;;;21.97;46.79;99137.44;10340439;28;21408;-54
2023/08/30 15:51:52;;;;;;;3.05;2.33;;;;;;;21.98;47.25;99134.53;10321892;28;20703;-54
2023/08/30 15:56:53;;;;;;;5.10;2.90;;;;;;;21.84;47.29;99119.44;10309356;28;20060;-55
2023/08/30 16:01:56;;;;;;;4.00;2.65;;;;;;;21.84;47.99;99123.00;10330903;28;21795;-55
2023/08/30 16:06:58;;;;;;;3.60;3.08;;;;;;;21.78;48.43;99123.88;10317762;28;21522;-53
2023/08/30 16:12:00;;;;;;;2.55;2.35;;;;;;;21.81;48.48;99117.19;10322266;28;20239;-55
2023/08/30 16:17:02;;;;;;;4.03;2.00;;;;;;;21.76;47.46;99125.19;10337978;28;20053;-55
2023/08/30 16:22:04;;;;;;;2.50;2.08;;;;;;;21.62;46.48;99119.03;10326901;28;20053;-54
2023/08/30 16:27:07;;;;;;;3.70;2.08;;;;;;;21.51;46.34;99113.34;10323557;28;20068;-55
2023/08/30 16:32:09;;;;;;;4.55;1.70;;;;;;;21.43;46.94;99110.88;10311606;28;20438;-53
2023/08/30 16:37:10;;;;;;;2.50;1.63;;;;;;;21.45;47.59;99119.63;10325877;28;20111;-54
2023/08/30 16:42:12;;;;;;;3.08;1.98;;;;;;;21.36;47.25;99131.75;10325106;28;20099;-55
2023/08/30 16:47:17;;;;;;;3.28;2.13;;;;;;;21.36;47.67;99142.56;10337423;28;20711;-54
2023/08/30 16:52:19;;;;;;;3.20;2.13;;;;;;;21.22;47.86;99124.81;10310256;28;20207;-55
2023/08/30 16:57:22;;;;;;;2.80;2.10;;;;;;;21.16;47.96;99121.91;10328237;28;20107;-55
2023/08/30 17:02:24;;;;;;;5.30;4.35;;;;;;;21.15;49.48;99147.34;10310109;28;20064;-53
2023/08/30 17:07:26;;;;;;;3.22;1.85;;;;;;;21.13;49.80;99151.28;10323549;28;20103;-54
2023/08/30 17:12:27;;;;;;;2.95;1.85;;;;;;;20.93;50.90;99162.28;10317116;28;20199;-54
2023/08/30 17:17:29;;;;;;;3.10;1.40;;;;;;;20.72;51.12;99172.34;10309052;28;20061;-56
2023/08/30 17:22:31;;;;;;;1.60;0.80;;;;;;;20.54;52.82;99196.56;10334498;28;20060;-54
2023/08/30 17:27:35;;;;;;;0.98;0.70;;;;;;;20.18;55.60;99214.13;10340680;28;20056;-54
2023/08/30 17:32:37;;;;;;;1.23;0.63;;;;;;;20.03;59.04;99215.19;10334741;28;20613;-54
2023/08/30 17:37:39;;;;;;;2.10;0.40;;;;;;;19.97;62.40;99221.44;10287213;28;20139;-53
2023/08/30 17:42:42;;;;;;;0.55;0.20;;;;;;;19.86;65.41;99238.25;10303519;28;20153;-53
2023/08/30 17:47:47;;;;;;;0.45;0.20;;;;;;;19.67;67.53;99238.03;10313088;28;20064;-54
2023/08/30 17:52:49;;;;;;;1.23;0.60;;;;;;;19.34;69.82;99243.41;10309160;28;20114;-53
2023/08/30 17:57:52;;;;;;;1.20;0.63;;;;;;;19.39;71.57;99230.94;10319677;28;20168;-53
2023/08/30 18:02:54;;;;;;;1.83;0.40;;;;;;;19.42;71.62;99232.41;10335195;28;20161;-54
2023/08/30 18:07:57;;;;;;;0.93;0.45;;;;;;;19.45;71.13;99223.06;10329626;28;20068;-53
2023/08/30 18:12:58;;;;;;;3.58;0.50;;;;;;;19.59;72.96;99252.56;10331962;28;20050;-54
2023/08/30 18:18:00;;;;;;;3.22;0.80;;;;;;;19.51;72.17;99243.84;10314561;28;20514;-53
2023/08/30 18:23:01;;;;;;;1.48;0.43;;;;;;;19.37;72.93;99262.72;10295847;28;20057;-53
2023/08/30 18:28:05;;;;;;;2.03;0.80;;;;;;;19.32;73.66;99267.91;10321691;28;20084;-52
2023/08/30 18:33:06;;;;;;;0.57;0.30;;;;;;;19.25;72.84;99302.94;10315464;28;20053;-53
2023/08/30 18:38:08;;;;;;;1.27;0.73;;;;;;;19.01;73.93;99304.31;10323407;28;20053;-54
2023/08/30 18:43:10;;;;;;;1.70;0.63;;;;;;;18.95;74.09;99321.31;10332247;28;20053;-52
2023/08/30 18:48:13;;;;;;;1.52;0.60;;;;;;;18.77;77.23;99318.28;10286564;28;20675;-53
2023/08/30 18:53:16;;;;;;;1.65;0.50;;;;;;;18.28;78.58;99328.16;10331190;28;20053;-53
2023/08/30 18:58:17;;;;;;;1.90;1.10;;;;;;;18.32;80.22;99335.63;10330193;28;20863;-53
2023/08/30 19:03:19;;;;;;;1.67;0.82;;;;;;;17.82;75.07;99332.94;10328918;28;21209;-53
2023/08/30 19:08:21;;;;;;;1.38;0.63;;;;;;;17.81;76.35;99335.81;10328046;28;20772;-53
2023/08/30 19:13:23;;;;;;;3.53;1.80;;;;;;;17.97;79.01;99340.97;10303602;28;20717;-59
2023/08/30 19:18:24;;;;;;;2.40;1.20;;;;;;;17.85;75.17;99331.72;10330763;28;20762;-54
2023/08/30 19:23:28;;;;;;;2.70;1.30;;;;;;;17.58;77.16;99292.94;10322132;28;20061;-53
2023/08/30 19:28:29;;;;;;;3.33;1.88;;;;;;;17.99;76.80;99322.75;10324529;28;20045;-52
2023/08/30 19:33:31;;;;;;;1.10;0.73;;;;;;;18.17;77.02;99335.72;10320224;28;20124;-54
2023/08/30 19:38:32;;;;;;;1.67;1.35;;;;;;;18.22;74.76;99326.25;10342275;28;20131;-54
2023/08/30 19:43:34;;;;;;;1.75;1.30;;;;;;;18.20;75.17;99319.19;10336139;28;20116;-54
2023/08/30 19:48:39;;;;;;;2.65;1.60;;;;;;;18.08;73.40;99306.47;10335141;28;20060;-53
2023/08/30 19:53:40;;;;;;;5.18;2.03;;;;;;;17.98;75.80;99331.00;10288782;28;20057;-54
2023/08/30 19:58:42;;;;;;;2.35;1.42;;;;;;;17.96;75.50;99365.38;10294552;28;20054;-53
2023/08/30 20:03:46;;;;;;;4.32;1.85;;;;;;;17.94;74.34;99373.66;10307601;28;20053;-53
2023/08/30 20:08:47;;;;;;;3.20;1.90;;;;;;;17.89;75.55;99407.53;10321490;28;21483;-54
2023/08/30 20:13:50;;;;;;;3.22;2.30;;;;;;;17.83;75.74;99404.59;10340535;28;20052;-54
2023/08/30 20:18:52;;;;;;;3.70;2.83;;;;;;;17.73;74.71;99414.84;10318741;28;20041;-54
2023/08/30 20:23:53;;;;;;;3.33;1.88;;;;;;;17.70;75.39;99414.34;10332935;28;20049;-53
2023/08/30 20:28:55;;;;;;;4.28;2.50;;;;;;;17.67;75.25;99402.97;10324116;28;20136;-53
2023/08/30 20:33:57;;;;;;;2.85;2.53;;;;;;;17.60;76.65;99377.00;10313303;28;20049;-52
2023/08/30 20:38:58;;;;;;;2.78;1.85;;;;;;;17.74;77.17;99411.09;10295687;28;20060;-52
2023/08/30 20:44:01;;;;;;;2.30;1.85;;;;;;;17.50;75.80;99409.59;10322066;28;20049;-53
2023/08/30 20:49:03;;;;;;;4.05;1.65;;;;;;;17.54;75.87;99427.03;10334093;28;20061;-52
2023/08/30 20:54:04;;;;;;;2.33;1.50;;;;;;;17.48;76.14;99422.41;10339496;28;20103;-53
2023/08/30 20:59:06;;;;;;;2.22;1.30;;;;;;;17.49;77.82;99435.66;10334629;28;20084;-53
2023/08/30 21:04:08;;;;;;;2.65;1.40;;;;;;;17.49;78.20;99441.06;10315323;28;20147;-53
2023/08/30 21:09:10;;;;;;;2.05;1.63;;;;;;;17.37;78.12;99436.31;10316808;28;20057;-54
2023/08/30 21:14:13;;;;;;;2.40;1.40;;;;;;;17.43;79.57;99432.88;10331724;28;20061;-52
2023/08/30 21:19:14;;;;;;;2.60;1.23;;;;;;;17.47;78.88;99431.50;10326098;28;20061;-53
2023/08/30 21:24:16;;;;;;;2.83;1.58;;;;;;;17.46;79.33;99421.78;10343879;28;20053;-54
2023/08/30 21:29:17;;;;;;;3.95;1.92;;;;;;;17.48;79.52;99417.03;10338065;28;20091;-54
2023/08/30 21:34:19;;;;;;;2.42;1.65;;;;;;;17.53;80.11;99419.97;10340410;28;20057;-54
2023/08/30 21:39:21;;;;;;;2.55;1.52;;;;;;;17.55;80.29;99422.47;10343854;28;20046;-53
2023/08/30 21:44:23;;;;;;;3.70;2.05;;;;;;;17.58;80.77;99420.25;10346075;28;20529;-50
2023/08/30 21:49:25;;;;;;;2.40;1.35;;;;;;;17.56;80.38;99419.59;10347845;28;20049;-48
2023/08/30 21:54:26;;;;;;;4.57;1.88;;;;;;;17.59;80.22;99421.91;10352445;28;20683;-54
2023/08/30 21:59:28;;;;;;;2.10;1.73;;;;;;;17.58;80.10;99422.94;10352548;28;20057;-49
2023/08/30 22:04:30;;;;;;;4.40;1.48;;;;;;;17.57;80.03;99425.81;10337899;28;20721;-49
2023/08/30 22:09:32;;;;;;;3.50;2.35;;;;;;;17.58;80.83;99417.56;10348751;28;20060;-49
2023/08/30 22:14:36;;;;;;;1.70;1.60;;;;;;;17.57;81.18;99418.56;10318464;28;20518;-49
2023/08/30 22:19:50;;;;;;;3.55;2.03;;;;;;;17.56;81.62;99419.59;10342075;28;20060;-50
2023/08/30 22:24:52;;;;;;;2.67;1.60;;;;;;;17.50;80.63;99420.34;10344069;28;20099;-49
2023/08/30 22:29:54;;;;;;;2.50;1.40;;;;;;;17.47;80.85;99416.19;10339247;28;20704;-49
2023/08/30 22:34:58;;;;;;;3.95;2.10;;;;;;;17.45;80.68;99417.41;10344580;28;20045;-48
2023/08/30 22:40:01;;;;;;;3.13;2.08;;;;;;;17.41;79.67;99416.09;10344508;28;20061;-49
2023/08/30 22:45:02;;;;;;;3.10;2.33;;;;;;;17.33;80.33;99419.75;10345045;28;20074;-48
2023/08/30 22:50:05;;;;;;;2.97;2.05;;;;;;;17.32;81.24;99423.44;10329414;28;20065;-49
2023/08/30 22:55:07;;;;;;;3.22;2.50;;;;;;;17.31;81.56;99438.75;10346737;28;20041;-49
2023/08/30 23:00:10;;;;;;;3.70;1.50;;;;;;;17.24;83.10;99443.22;10346047;28;20057;-49
2023/08/30 23:05:12;;;;;;;1.90;1.30;;;;;;;17.16;83.62;99445.16;10328513;28;20053;-49
2023/08/30 23:10:14;;;;;;;2.28;1.35;;;;;;;17.05;83.79;99457.22;10343285;28;20611;-49
2023/08/30 23:15:18;;;;;;;2.78;1.55;;;;;;;17.03;83.93;99445.81;10346587;28;20123;-48
2023/08/30 23:20:20;;;;;;;2.53;2.15;;;;;;;17.03;84.63;99448.50;10346128;28;20561;-48
2023/08/30 23:25:24;;;;;;;3.38;2.83;;;;;;;17.09;84.06;99453.16;10338436;28;20050;-51
2023/08/30 23:30:26;;;;;;;2.22;1.80;;;;;;;17.07;84.13;99449.78;10321637;28;20132;-50